createdAt,value
2018-10-16T00:01:27.901Z,12.47
2018-10-16T00:03:56.245Z,14.63
2018-10-16T00:06:24.629Z,9.37
2018-10-16T00:08:52.983Z,12.23
2018-10-16T00:11:22.121Z,11.13
2018-10-16T00:13:50.470Z,12.17
2018-10-16T00:16:18.816Z,12.87
2018-10-16T00:18:47.165Z,11.43
2018-10-16T00:21:15.553Z,11.67
2018-10-16T00:23:43.930Z,14.13
2018-10-16T00:26:12.291Z,11.43
2018-10-16T00:28:40.674Z,11.20
2018-10-16T00:31:09.034Z,10.77
2018-10-16T00:33:37.510Z,11.07
2018-10-16T00:36:05.858Z,12.17
2018-10-16T00:38:34.210Z,14.57
2018-10-16T00:41:02.648Z,10.77
2018-10-16T00:43:31.001Z,10.37
2018-10-16T00:46:00.124Z,10.13
2018-10-16T00:48:28.489Z,9.93
2018-10-16T00:50:57.628Z,10.80
2018-10-16T00:53:25.977Z,12.13
2018-10-16T00:55:54.382Z,10.40
2018-10-16T00:58:22.738Z,10.50
2018-10-16T01:00:51.113Z,9.97
2018-10-16T01:03:19.469Z,11.47
2018-10-16T01:05:47.817Z,10.50
2018-10-16T01:08:16.196Z,10.10
2018-10-16T01:10:44.528Z,9.93
2018-10-16T01:13:12.914Z,9.83
2018-10-16T01:15:42.004Z,9.50
2018-10-16T01:18:10.386Z,9.00
2018-10-16T01:20:38.763Z,11.43
2018-10-16T01:23:07.161Z,9.83
2018-10-16T01:25:35.520Z,13.73
2018-10-16T01:28:03.932Z,10.97
2018-10-16T01:30:32.255Z,12.57
2018-10-16T01:33:01.442Z,9.73
2018-10-16T01:35:29.828Z,8.07
2018-10-16T01:37:58.231Z,9.83
2018-10-16T01:40:26.583Z,9.90
2018-10-16T01:42:55.117Z,8.40
2018-10-16T01:45:23.442Z,11.70
2018-10-16T01:47:51.797Z,8.83
2018-10-16T01:50:20.143Z,12.43
2018-10-16T01:52:48.495Z,9.17
2018-10-16T01:55:16.909Z,10.43
2018-10-16T01:57:45.267Z,8.60
2018-10-16T02:00:13.647Z,11.53
2018-10-16T02:02:42.068Z,10.23
2018-10-16T02:05:10.497Z,9.40
2018-10-16T02:07:38.836Z,10.57
2018-10-16T02:10:07.248Z,11.07
2018-10-16T02:12:36.365Z,10.93
2018-10-16T02:15:04.734Z,12.33
2018-10-16T02:17:33.879Z,11.37
2018-10-16T02:20:02.237Z,11.37
2018-10-16T02:22:30.599Z,11.80
2018-10-16T02:24:59.741Z,12.73
2018-10-16T02:27:28.140Z,12.43
2018-10-16T02:29:56.472Z,13.40
2018-10-16T02:32:24.862Z,13.70
2018-10-16T02:34:53.216Z,14.07
2018-10-16T02:37:21.596Z,12.13
2018-10-16T02:39:49.928Z,11.43
2018-10-16T02:42:18.266Z,13.13
2018-10-16T02:44:46.662Z,12.57
2018-10-16T02:47:15.102Z,11.20
2018-10-16T02:49:44.217Z,10.60
2018-10-16T02:52:12.568Z,14.63
2018-10-16T02:54:41.684Z,13.03
2018-10-16T02:57:10.060Z,14.47
2018-10-16T02:59:39.200Z,12.40
2018-10-16T03:02:07.552Z,10.80
2018-10-16T03:04:35.936Z,11.70
2018-10-16T03:07:04.328Z,9.90
2018-10-16T03:09:32.681Z,10.33
2018-10-16T03:12:01.030Z,12.10
2018-10-16T03:14:30.150Z,11.60
2018-10-16T03:16:58.533Z,15.23
2018-10-16T03:19:26.868Z,11.87
2018-10-16T03:21:55.253Z,13.43
2018-10-16T03:24:23.586Z,12.73
2018-10-16T03:26:51.985Z,11.10
2018-10-16T03:29:20.375Z,10.90
2018-10-16T03:31:48.807Z,12.63
2018-10-16T03:34:17.195Z,13.40
2018-10-16T03:36:45.570Z,11.70
2018-10-16T03:39:13.959Z,15.20
2018-10-16T03:41:42.365Z,14.33
2018-10-16T03:44:10.703Z,15.33
2018-10-16T03:46:39.099Z,15.23
2018-10-16T03:49:07.464Z,13.40
2018-10-16T03:51:35.855Z,14.23
2018-10-16T03:54:04.301Z,13.43
2018-10-16T03:56:32.637Z,12.57
2018-10-16T03:59:01.087Z,16.67
2018-10-16T04:01:29.443Z,16.03
2018-10-16T04:03:57.811Z,14.50
2018-10-16T04:06:26.274Z,13.07
2018-10-16T04:08:54.607Z,14.90
2018-10-16T04:11:22.949Z,13.77
2018-10-16T04:13:51.396Z,15.13
2018-10-16T04:16:19.694Z,19.10
2018-10-16T04:18:48.088Z,14.00
2018-10-16T04:21:16.444Z,14.27
2018-10-16T04:23:44.817Z,13.57
2018-10-16T04:26:13.165Z,14.10
2018-10-16T04:28:41.533Z,15.67
2018-10-16T04:31:10.652Z,17.13
2018-10-16T04:33:39.026Z,13.23
2018-10-16T04:36:07.431Z,13.40
2018-10-16T04:38:36.622Z,13.33
2018-10-16T04:41:04.953Z,13.47
2018-10-16T04:43:33.345Z,14.03
2018-10-16T04:46:01.727Z,15.40
2018-10-16T04:48:30.103Z,12.07
2018-10-16T04:50:58.481Z,15.33
2018-10-16T04:53:27.703Z,15.43
2018-10-16T04:55:56.164Z,13.93
2018-10-16T04:58:25.272Z,14.43
2018-10-16T05:00:53.623Z,14.50
2018-10-16T05:03:21.991Z,15.20
2018-10-16T05:05:50.400Z,13.70
2018-10-16T05:08:18.903Z,12.87
2018-10-16T05:10:47.269Z,14.10
2018-10-16T05:13:15.959Z,14.63
2018-10-16T05:15:44.257Z,12.33
2018-10-16T05:18:12.659Z,14.37
2018-10-16T05:20:41.041Z,12.60
2018-10-16T05:23:09.613Z,18.33
2018-10-16T05:25:37.973Z,10.40
2018-10-16T05:28:07.945Z,14.47
2018-10-16T05:30:37.305Z,13.47
2018-10-16T05:33:05.641Z,15.53
2018-10-16T05:35:34.019Z,14.90
2018-10-16T05:38:02.388Z,11.50
2018-10-16T05:40:31.506Z,15.20
2018-10-16T05:43:00.618Z,14.67
2018-10-16T05:45:28.985Z,17.57
2018-10-16T05:47:57.379Z,20.67
2018-10-16T05:50:25.739Z,17.20
2018-10-16T05:52:54.113Z,17.70
2018-10-16T05:55:22.475Z,18.20
2018-10-16T05:57:51.632Z,20.00
2018-10-16T06:00:27.724Z,22.77
2018-10-16T06:02:56.380Z,19.60
2018-10-16T06:05:24.734Z,19.57
2018-10-16T06:07:53.080Z,21.07
2018-10-16T06:10:22.268Z,21.77
2018-10-16T06:12:50.603Z,19.30
2018-10-16T06:15:19.014Z,21.93
2018-10-16T06:17:47.406Z,17.63
2018-10-16T06:20:16.721Z,21.47
2018-10-16T06:22:45.123Z,25.13
2018-10-16T06:25:13.506Z,19.40
2018-10-16T06:27:41.947Z,20.57
2018-10-16T06:30:10.267Z,19.23
2018-10-16T06:32:38.633Z,18.67
2018-10-16T06:35:07.804Z,14.77
2018-10-16T06:37:36.269Z,22.57
2018-10-16T06:40:04.767Z,15.10
2018-10-16T06:42:34.045Z,16.00
2018-10-16T06:45:02.587Z,16.40
2018-10-16T06:47:31.003Z,17.67
2018-10-16T06:50:00.390Z,18.13
2018-10-16T06:52:35.769Z,23.33
2018-10-16T06:55:05.197Z,18.23
2018-10-16T06:57:34.933Z,21.27
2018-10-16T07:00:03.311Z,16.40
2018-10-16T07:02:31.724Z,19.40
2018-10-16T07:05:00.157Z,21.33
2018-10-16T07:07:29.264Z,19.20
2018-10-16T07:09:57.655Z,17.77
2018-10-16T07:12:26.023Z,17.77
2018-10-16T07:14:54.422Z,18.50
2018-10-16T07:17:22.898Z,18.20
2018-10-16T07:19:51.291Z,20.03
2018-10-16T07:22:19.641Z,22.00
2018-10-16T07:24:48.052Z,22.93
2018-10-16T07:27:16.553Z,16.77
2018-10-16T07:29:44.936Z,16.40
2018-10-16T07:32:13.417Z,18.70
2018-10-16T07:34:41.776Z,19.53
2018-10-16T07:37:10.186Z,18.27
2018-10-16T07:39:38.520Z,23.03
2018-10-16T07:42:06.904Z,19.50
2018-10-16T07:44:36.043Z,17.43
2018-10-16T07:47:05.184Z,17.93
2018-10-16T07:49:33.591Z,18.47
2018-10-16T07:52:01.928Z,19.10
2018-10-16T07:54:30.308Z,17.20
2018-10-16T07:56:58.641Z,17.83
2018-10-16T07:59:27.098Z,18.80
2018-10-16T08:01:55.464Z,13.40
2018-10-16T08:04:23.814Z,18.60
2018-10-16T08:06:52.205Z,17.37
2018-10-16T08:09:20.547Z,18.37
2018-10-16T08:11:48.909Z,18.97
2018-10-16T08:14:17.372Z,23.10
2018-10-16T08:16:45.728Z,18.27
2018-10-16T08:19:14.105Z,20.67
2018-10-16T08:21:42.475Z,16.90
2018-10-16T08:24:10.819Z,18.03
2018-10-16T08:26:39.226Z,18.10
2018-10-16T08:29:07.578Z,15.17
2018-10-16T08:31:35.935Z,18.37
2018-10-16T08:34:04.297Z,16.93
2018-10-16T08:36:32.810Z,18.50
2018-10-16T08:39:01.036Z,16.73
2018-10-16T08:41:29.415Z,14.67
2018-10-16T08:44:01.530Z,18.73
2018-10-16T08:52:35.576Z,19.43
2018-10-16T08:55:04.055Z,15.27
2018-10-16T08:57:32.289Z,16.25
2018-10-16T09:00:00.647Z,15.67
2018-10-16T09:02:29.777Z,20.25
2018-10-16T09:04:58.149Z,15.38
2018-10-16T09:07:26.647Z,22.10
2018-10-16T09:09:55.047Z,16.15
2018-10-16T09:12:23.403Z,17.87
2018-10-16T09:14:51.806Z,18.55
2018-10-16T09:17:20.694Z,23.10
2018-10-16T09:19:49.068Z,22.60
2018-10-16T09:22:17.413Z,18.20
2018-10-16T09:24:45.895Z,18.15
2018-10-16T09:27:14.918Z,24.42
2018-10-16T09:29:43.296Z,16.25
2018-10-16T09:32:11.702Z,17.62
2018-10-16T09:34:40.154Z,21.83
2018-10-16T09:37:08.484Z,21.25
2018-10-16T09:39:37.643Z,19.60
2018-10-16T09:42:06.032Z,21.17
2018-10-16T09:44:34.489Z,23.02
2018-10-16T09:47:03.164Z,21.95
2018-10-16T09:49:31.592Z,20.52
2018-10-16T09:51:59.872Z,21.60
2018-10-16T09:54:28.214Z,21.90
2018-10-16T09:56:56.589Z,17.40
2018-10-16T09:59:24.945Z,20.62
2018-10-16T10:01:53.320Z,24.40
2018-10-16T10:04:21.703Z,23.40
2018-10-16T10:06:50.067Z,23.85
2018-10-16T10:09:18.402Z,19.17
2018-10-16T10:11:46.789Z,19.20
2018-10-16T10:14:15.138Z,19.90
2018-10-16T10:16:43.502Z,21.80
2018-10-16T10:19:11.867Z,20.02
2018-10-16T10:21:40.996Z,20.65
2018-10-16T10:24:09.376Z,18.45
2018-10-16T10:26:37.765Z,20.62
2018-10-16T10:29:06.250Z,18.65
2018-10-16T10:31:34.616Z,19.33
2018-10-16T10:34:03.068Z,16.70
2018-10-16T10:36:32.134Z,20.55
2018-10-16T10:39:00.538Z,17.50
2018-10-16T10:41:29.712Z,23.90
2018-10-16T10:43:58.054Z,15.57
2018-10-16T10:46:26.500Z,19.25
2018-10-16T10:48:55.660Z,19.27
2018-10-16T10:51:24.260Z,16.95
2018-10-16T10:53:52.391Z,13.23
2018-10-16T10:56:20.759Z,17.40
2018-10-16T10:58:49.137Z,17.83
2018-10-16T11:01:17.559Z,15.23
2018-10-16T11:03:46.111Z,17.73
2018-10-16T11:06:14.621Z,15.98
2018-10-16T11:08:43.011Z,16.10
2018-10-16T11:11:11.386Z,16.42
2018-10-16T11:13:39.740Z,16.25
2018-10-16T11:16:08.138Z,17.15
2018-10-16T11:18:36.496Z,21.80
2018-10-16T11:21:05.011Z,21.27
2018-10-16T11:23:33.337Z,21.40
2018-10-16T11:26:01.718Z,22.55
2018-10-16T11:28:30.131Z,22.42
2018-10-16T11:30:58.526Z,22.45
2018-10-16T11:33:27.498Z,21.30
2018-10-16T11:35:55.986Z,25.37
2018-10-16T11:38:24.370Z,27.15
2018-10-16T11:40:52.784Z,25.37
2018-10-16T11:43:21.942Z,25.05
2018-10-16T11:45:51.050Z,25.52
2018-10-16T11:48:20.240Z,21.80
2018-10-16T11:50:48.590Z,23.42
2018-10-16T11:53:17.036Z,24.15
2018-10-16T11:55:45.410Z,21.60
2018-10-16T11:58:14.588Z,22.27
2018-10-16T12:00:42.960Z,19.45
2018-10-16T12:03:12.370Z,23.52
2018-10-16T12:05:40.730Z,25.25
2018-10-16T12:08:09.149Z,23.70
2018-10-16T12:10:37.532Z,23.60
2018-10-16T12:13:05.850Z,21.98
2018-10-16T12:15:34.265Z,27.80
2018-10-16T12:18:02.590Z,21.00
2018-10-16T12:20:30.952Z,20.92
2018-10-16T12:23:00.065Z,16.80
2018-10-16T12:25:28.479Z,17.75
2018-10-16T12:27:56.834Z,18.50
2018-10-16T12:30:25.192Z,21.00
2018-10-16T12:32:54.323Z,17.95
2018-10-16T12:35:22.691Z,15.57
2018-10-16T12:37:51.068Z,17.65
2018-10-16T12:40:19.517Z,16.58
2018-10-16T12:42:48.040Z,16.05
2018-10-16T12:45:16.389Z,17.90
2018-10-16T12:47:44.744Z,15.05
2018-10-16T12:50:13.113Z,16.05
2018-10-16T12:52:41.552Z,16.08
2018-10-16T12:55:10.012Z,18.15
2018-10-16T12:57:39.114Z,15.27
2018-10-16T13:00:08.391Z,19.02
2018-10-16T13:02:36.730Z,17.62
2018-10-16T13:05:05.181Z,17.50
2018-10-16T13:07:33.482Z,19.40
2018-10-16T13:10:01.869Z,18.83
2018-10-16T13:12:30.252Z,25.20
2018-10-16T13:14:58.611Z,19.90
2018-10-16T13:17:27.162Z,17.95
2018-10-16T13:19:55.509Z,17.17
2018-10-16T13:22:23.900Z,16.90
2018-10-16T13:24:53.049Z,19.62
2018-10-16T13:27:21.388Z,18.15
2018-10-16T13:29:50.556Z,16.90
2018-10-16T13:32:18.919Z,16.10
2018-10-16T13:34:48.204Z,20.92
2018-10-16T13:37:16.549Z,16.80
2018-10-16T13:39:45.644Z,19.90
2018-10-16T13:42:14.793Z,21.30
2018-10-16T13:44:43.130Z,22.55
2018-10-16T13:47:12.262Z,16.83
2018-10-16T13:49:40.588Z,19.40
2018-10-16T13:52:09.782Z,17.58
2018-10-16T13:54:38.121Z,16.08
2018-10-16T13:57:06.597Z,14.40
2018-10-16T13:59:34.947Z,17.33
2018-10-16T14:02:03.381Z,18.45
2018-10-16T14:04:31.718Z,22.13
2018-10-16T14:07:00.104Z,16.12
2018-10-16T14:09:28.492Z,18.70
2018-10-16T14:11:56.886Z,15.10
2018-10-16T14:14:25.240Z,17.75
2018-10-16T14:16:53.662Z,20.67
2018-10-16T14:19:22.744Z,20.92
2018-10-16T14:21:52.167Z,15.85
2018-10-16T14:24:20.472Z,17.23
2018-10-16T14:26:49.645Z,15.73
2018-10-16T14:29:18.126Z,15.02
2018-10-16T14:31:46.476Z,21.50
2018-10-16T14:34:15.387Z,15.43
2018-10-16T14:36:44.429Z,15.32
2018-10-16T14:39:12.784Z,19.12
2018-10-16T14:41:41.352Z,15.98
2018-10-16T14:44:10.005Z,20.15
2018-10-16T14:46:38.273Z,17.80
2018-10-16T14:49:06.639Z,18.52
2018-10-16T14:51:35.061Z,15.10
2018-10-16T14:54:03.445Z,16.75
2018-10-16T14:56:31.822Z,14.43
2018-10-16T14:59:00.272Z,18.80
2018-10-16T15:01:28.600Z,16.85
2018-10-16T15:03:57.882Z,21.17
2018-10-16T15:06:26.455Z,16.48
2018-10-16T15:08:54.804Z,22.20
2018-10-16T15:11:23.160Z,18.10
2018-10-16T15:13:52.649Z,15.30
2018-10-16T15:16:21.076Z,17.80
2018-10-16T15:18:49.619Z,18.95
2018-10-16T15:21:18.132Z,15.95
2018-10-16T15:23:47.771Z,14.05
2018-10-16T15:26:16.239Z,16.20
2018-10-16T15:28:44.582Z,14.52
2018-10-16T15:31:13.842Z,14.25
2018-10-16T15:33:42.232Z,13.13
2018-10-16T15:36:10.599Z,12.95
2018-10-16T15:38:38.924Z,11.80
2018-10-16T15:41:08.076Z,11.82
2018-10-16T15:43:36.398Z,11.75
2018-10-16T15:46:04.823Z,12.45
2018-10-16T15:48:33.235Z,12.95
2018-10-16T15:51:01.581Z,14.35
2018-10-16T15:53:29.975Z,12.95
2018-10-16T15:55:58.380Z,17.50
2018-10-16T15:58:26.870Z,15.80
2018-10-16T16:00:55.364Z,18.05
2018-10-16T16:03:24.503Z,17.95
2018-10-16T16:05:52.887Z,19.92
2018-10-16T16:08:21.240Z,19.98
2018-10-16T16:10:49.644Z,18.05
2018-10-16T16:13:18.017Z,19.87
2018-10-16T16:15:46.540Z,15.68
2018-10-16T16:18:14.934Z,18.23
2018-10-16T16:20:43.292Z,18.50
2018-10-16T16:23:11.678Z,20.02
2018-10-16T16:25:40.074Z,16.48
2018-10-16T16:28:08.401Z,17.15
2018-10-16T16:30:36.812Z,17.52
2018-10-16T16:33:05.177Z,16.15
2018-10-16T16:35:33.553Z,16.63
2018-10-16T16:38:01.971Z,17.27
2018-10-16T16:40:30.485Z,15.82
2018-10-16T16:42:58.877Z,14.32
2018-10-16T16:45:27.301Z,15.55
2018-10-16T16:47:55.716Z,13.98
2018-10-16T16:50:24.859Z,16.33
2018-10-16T16:52:53.251Z,15.10
2018-10-16T16:55:21.685Z,13.95
2018-10-16T16:57:50.099Z,11.65
2018-10-16T17:00:18.559Z,17.33
2018-10-16T17:02:47.013Z,16.93
2018-10-16T17:05:16.233Z,14.52
2018-10-16T17:07:44.783Z,20.87
2018-10-16T17:10:13.271Z,18.80
2018-10-16T17:12:41.526Z,16.33
2018-10-16T17:15:09.876Z,15.52
2018-10-16T17:17:38.287Z,16.00
2018-10-16T17:20:06.754Z,14.82
2018-10-16T17:22:35.171Z,14.60
2018-10-16T17:25:03.684Z,17.50
2018-10-16T17:27:31.966Z,15.63
2018-10-16T17:30:00.366Z,19.33
2018-10-16T17:32:28.736Z,22.53
2018-10-16T17:34:57.282Z,22.62
2018-10-16T17:37:25.631Z,18.80
2018-10-16T17:39:54.764Z,17.03
2018-10-16T17:42:23.184Z,17.43
2018-10-16T17:44:51.629Z,18.00
2018-10-16T17:47:19.989Z,22.40
2018-10-16T17:49:48.418Z,19.20
2018-10-16T17:52:16.798Z,17.27
2018-10-16T17:54:45.140Z,16.67
2018-10-16T17:57:13.526Z,20.50
2018-10-16T17:59:41.934Z,18.37
2018-10-16T18:02:10.281Z,21.03
2018-10-16T18:04:38.716Z,17.20
2018-10-16T18:07:07.043Z,17.00
2018-10-16T18:09:35.402Z,17.47
2018-10-16T18:12:03.769Z,19.50
2018-10-16T18:14:32.892Z,19.53
2018-10-16T18:17:01.326Z,20.00
2018-10-16T18:19:29.751Z,34.75
2018-10-16T18:21:58.120Z,28.47
2018-10-16T18:24:26.587Z,30.30
2018-10-16T18:26:55.815Z,27.37
2018-10-16T18:29:24.201Z,22.37
2018-10-16T18:31:52.587Z,17.07
2018-10-16T18:34:21.554Z,18.47
2018-10-16T18:36:50.200Z,17.33
2018-10-16T18:39:18.642Z,22.13
2018-10-16T18:41:46.974Z,21.67
2018-10-16T18:44:16.131Z,19.50
2018-10-16T18:46:44.517Z,20.63
2018-10-16T18:49:12.891Z,22.17
2018-10-16T18:51:41.296Z,23.20
2018-10-16T18:54:09.669Z,21.70
2018-10-16T18:56:38.391Z,18.07
2018-10-16T18:59:06.838Z,19.33
2018-10-16T19:01:35.241Z,22.13
2018-10-16T19:04:03.661Z,22.70
2018-10-16T19:06:32.063Z,30.63
2018-10-16T19:09:00.442Z,23.07
2018-10-16T19:11:28.807Z,20.53
2018-10-16T19:13:57.245Z,19.90
2018-10-16T19:16:25.547Z,17.53
2018-10-16T19:18:53.937Z,20.50
2018-10-16T19:21:22.312Z,18.35
2018-10-16T19:23:50.692Z,19.30
2018-10-16T19:26:19.041Z,20.67
2018-10-16T19:28:48.322Z,21.80
2018-10-16T19:31:16.748Z,18.67
2018-10-16T19:33:45.085Z,19.43
2018-10-16T19:36:13.445Z,22.40
2018-10-16T19:38:41.826Z,20.90
2018-10-16T19:41:10.204Z,21.23
2018-10-16T19:43:38.598Z,20.57
2018-10-16T19:46:07.733Z,20.12
2018-10-16T19:48:36.147Z,22.77
2018-10-16T19:51:04.648Z,19.07
2018-10-16T19:53:32.946Z,22.30
2018-10-16T19:56:01.299Z,20.00
2018-10-16T19:58:29.764Z,23.17
2018-10-16T20:00:58.332Z,21.97
2018-10-16T20:03:26.665Z,20.37
2018-10-16T20:05:55.900Z,20.63
2018-10-16T20:08:24.435Z,23.67
2018-10-16T20:10:53.697Z,24.52
2018-10-16T20:13:22.088Z,21.80
2018-10-16T20:15:50.592Z,20.92
2018-10-16T20:18:18.952Z,22.10
2018-10-16T20:20:47.357Z,22.87
2018-10-16T20:23:16.561Z,23.23
2018-10-16T20:25:44.886Z,22.60
2018-10-16T20:28:13.273Z,22.50
2018-10-16T20:30:41.666Z,25.20
2018-10-16T20:33:10.039Z,24.53
2018-10-16T20:35:38.520Z,28.87
2018-10-16T20:38:06.901Z,50.30
2018-10-16T20:40:35.238Z,52.13
2018-10-16T20:43:03.673Z,27.57
2018-10-16T20:45:32.025Z,23.13
2018-10-16T20:48:00.404Z,22.60
2018-10-16T20:50:28.766Z,22.83
2018-10-16T20:52:57.153Z,22.13
2018-10-16T20:55:25.684Z,22.10
2018-10-16T20:57:54.026Z,21.10
2018-10-16T21:00:22.450Z,23.43
2018-10-16T21:02:50.837Z,21.40
2018-10-16T21:05:19.401Z,26.30
2018-10-16T21:07:48.449Z,27.60
2018-10-16T21:10:16.797Z,22.97
2018-10-16T21:12:45.234Z,26.63
2018-10-16T21:15:13.614Z,28.30
2018-10-16T21:17:41.926Z,22.27
2018-10-16T21:20:10.477Z,25.87
2018-10-16T21:22:38.824Z,23.80
2018-10-16T21:25:07.233Z,25.70
2018-10-16T21:27:35.514Z,26.97
2018-10-16T21:30:03.995Z,28.90
2018-10-16T21:32:32.328Z,24.73
2018-10-16T21:35:01.516Z,25.50
2018-10-16T21:37:29.848Z,23.50
2018-10-16T21:39:58.204Z,21.47
2018-10-16T21:42:26.539Z,25.97
2018-10-16T21:44:54.991Z,24.90
2018-10-16T21:47:23.340Z,24.87
2018-10-16T21:49:51.758Z,28.43
2018-10-16T21:52:20.076Z,26.67
2018-10-16T21:54:49.211Z,27.77
2018-10-16T21:57:17.553Z,27.60
2018-10-16T21:59:46.695Z,24.23
2018-10-16T22:02:15.042Z,29.50
2018-10-16T22:04:44.167Z,28.43
2018-10-16T22:07:12.584Z,24.87
2018-10-16T22:09:40.898Z,26.60
2018-10-16T22:12:09.257Z,24.53
2018-10-16T22:14:39.331Z,25.23
2018-10-16T22:17:07.681Z,24.67
2018-10-16T22:19:36.054Z,24.53
2018-10-16T22:22:04.412Z,27.07
2018-10-16T22:24:32.793Z,26.17
2018-10-16T22:27:01.178Z,27.23
2018-10-16T22:29:30.281Z,24.77
2018-10-16T22:31:59.416Z,25.53
2018-10-16T22:34:27.799Z,25.70
2018-10-16T22:36:56.223Z,26.73
2018-10-16T22:39:24.503Z,29.47
2018-10-16T22:41:53.635Z,27.50
2018-10-16T22:44:21.983Z,26.50
2018-10-16T22:46:51.076Z,27.50
2018-10-16T22:49:20.247Z,26.87
2018-10-16T22:51:48.599Z,30.17
2018-10-16T22:54:16.980Z,28.27
2018-10-16T22:56:45.357Z,30.50
2018-10-16T22:59:13.898Z,36.30
2018-10-16T23:01:42.213Z,31.87
2018-10-16T23:04:10.573Z,27.70
2018-10-16T23:06:38.954Z,34.17
2018-10-16T23:09:07.372Z,31.17
2018-10-16T23:11:35.745Z,33.33
2018-10-16T23:14:04.815Z,32.07
2018-10-16T23:16:33.142Z,29.70
2018-10-16T23:19:01.549Z,29.30
2018-10-16T23:21:29.854Z,33.27
2018-10-16T23:23:58.230Z,32.83
2018-10-16T23:26:26.597Z,32.63
2018-10-16T23:28:55.822Z,29.07
2018-10-16T23:31:24.113Z,32.07
2018-10-16T23:33:52.488Z,35.13
2018-10-16T23:36:20.892Z,30.70
2018-10-16T23:38:49.262Z,29.80
2018-10-16T23:41:17.728Z,35.47
2018-10-16T23:43:46.035Z,34.37
2018-10-16T23:46:14.414Z,31.23
2018-10-16T23:48:42.765Z,32.00
2018-10-16T23:51:11.148Z,30.23
2018-10-16T23:53:39.513Z,30.67
2018-10-16T23:56:07.899Z,29.73
2018-10-16T23:58:36.269Z,29.40
